sensor_id;sensor_type;location;lat;lon;timestamp;pressure;altitude;pressure_sealevel;temperature;humidity
65659;BME280;60181;53.258;6.932;2022-09-09T00:03:01;100869.37;;;21.44;62.15
65659;BME280;60181;53.258;6.932;2022-09-09T00:11:57;100866.09;;;21.42;61.86
65659;BME280;60181;53.258;6.932;2022-09-09T00:16:24;100865.26;;;21.40;61.76
65659;BME280;60181;53.258;6.932;2022-09-09T00:25:27;100861.19;;;21.40;61.06
65659;BME280;60181;53.258;6.932;2022-09-09T00:34:21;100854.08;;;21.38;61.03
65659;BME280;60181;53.258;6.932;2022-09-09T00:38:44;100851.23;;;21.37;61.35
65659;BME280;60181;53.258;6.932;2022-09-09T00:43:21;100848.54;;;21.35;62.20
65659;BME280;60181;53.258;6.932;2022-09-09T00:47:39;100846.45;;;21.34;61.10
65659;BME280;60181;53.258;6.932;2022-09-09T00:56:37;100844.95;;;21.34;60.49
65659;BME280;60181;53.258;6.932;2022-09-09T01:01:07;100843.61;;;21.34;60.45
65659;BME280;60181;53.258;6.932;2022-09-09T01:10:02;100840.73;;;21.33;60.25
65659;BME280;60181;53.258;6.932;2022-09-09T01:14:40;100839.56;;;21.33;60.17
65659;BME280;60181;53.258;6.932;2022-09-09T01:18:54;100838.75;;;21.32;60.11
65659;BME280;60181;53.258;6.932;2022-09-09T01:27:50;100838.92;;;21.31;60.04
65659;BME280;60181;53.258;6.932;2022-09-09T01:36:48;100835.04;;;21.30;59.81
65659;BME280;60181;53.258;6.932;2022-09-09T01:41:14;100832.26;;;21.29;59.81
65659;BME280;60181;53.258;6.932;2022-09-09T01:45:42;100829.53;;;21.29;59.71
65659;BME280;60181;53.258;6.932;2022-09-09T01:50:10;100827.56;;;21.29;59.99
65659;BME280;60181;53.258;6.932;2022-09-09T01:54:38;100825.57;;;21.28;59.72
65659;BME280;60181;53.258;6.932;2022-09-09T01:59:16;100823.49;;;21.27;59.64
65659;BME280;60181;53.258;6.932;2022-09-09T02:03:34;100821.74;;;21.26;59.61
65659;BME280;60181;53.258;6.932;2022-09-09T02:08:09;100819.94;;;21.26;59.94
65659;BME280;60181;53.258;6.932;2022-09-09T02:12:30;100818.42;;;21.25;59.59
65659;BME280;60181;53.258;6.932;2022-09-09T02:17:10;100817.55;;;21.24;59.83
65659;BME280;60181;53.258;6.932;2022-09-09T02:21:27;100818.05;;;21.23;60.41
65659;BME280;60181;53.258;6.932;2022-09-09T02:25:54;100817.83;;;21.22;60.06
65659;BME280;60181;53.258;6.932;2022-09-09T02:30:22;100817.75;;;21.21;59.96
65659;BME280;60181;53.258;6.932;2022-09-09T02:34:51;100817.17;;;21.20;59.48
65659;BME280;60181;53.258;6.932;2022-09-09T02:39:18;100816.79;;;21.20;59.47
65659;BME280;60181;53.258;6.932;2022-09-09T02:43:46;100816.20;;;21.18;59.44
65659;BME280;60181;53.258;6.932;2022-09-09T02:48:14;100815.75;;;21.17;59.57
65659;BME280;60181;53.258;6.932;2022-09-09T02:52:45;100815.59;;;21.16;59.39
65659;BME280;60181;53.258;6.932;2022-09-09T03:01:38;100815.27;;;21.15;59.32
65659;BME280;60181;53.258;6.932;2022-09-09T03:06:06;100814.58;;;21.16;59.36
65659;BME280;60181;53.258;6.932;2022-09-09T03:10:34;100813.48;;;21.17;59.58
65659;BME280;60181;53.258;6.932;2022-09-09T03:15:02;100812.66;;;21.18;59.51
65659;BME280;60181;53.258;6.932;2022-09-09T03:19:30;100811.64;;;21.17;59.75
65659;BME280;60181;53.258;6.932;2022-09-09T03:23:58;100811.16;;;21.16;59.87
65659;BME280;60181;53.258;6.932;2022-09-09T03:28:26;100809.94;;;21.15;59.81
65659;BME280;60181;53.258;6.932;2022-09-09T03:32:54;100808.44;;;21.15;59.85
65659;BME280;60181;53.258;6.932;2022-09-09T03:37:22;100807.26;;;21.15;59.91
65659;BME280;60181;53.258;6.932;2022-09-09T03:41:50;100805.44;;;21.15;60.27
65659;BME280;60181;53.258;6.932;2022-09-09T03:46:18;100804.44;;;21.15;60.55
65659;BME280;60181;53.258;6.932;2022-09-09T03:50:46;100804.42;;;21.17;60.23
65659;BME280;60181;53.258;6.932;2022-09-09T03:55:14;100805.63;;;21.20;60.45
65659;BME280;60181;53.258;6.932;2022-09-09T03:59:42;100806.50;;;21.21;60.26
65659;BME280;60181;53.258;6.932;2022-09-09T04:04:10;100807.15;;;21.23;60.20
65659;BME280;60181;53.258;6.932;2022-09-09T04:08:38;100808.37;;;21.24;60.03
65659;BME280;60181;53.258;6.932;2022-09-09T04:13:06;100809.43;;;21.25;60.04
65659;BME280;60181;53.258;6.932;2022-09-09T04:17:34;100809.91;;;21.26;60.05
65659;BME280;60181;53.258;6.932;2022-09-09T04:22:02;100809.59;;;21.27;60.05
65659;BME280;60181;53.258;6.932;2022-09-09T04:26:30;100809.91;;;21.27;60.13
65659;BME280;60181;53.258;6.932;2022-09-09T04:31:03;100811.41;;;21.28;60.10
65659;BME280;60181;53.258;6.932;2022-09-09T04:35:26;100813.24;;;21.28;60.23
65659;BME280;60181;53.258;6.932;2022-09-09T04:39:54;100815.08;;;21.28;60.10
65659;BME280;60181;53.258;6.932;2022-09-09T04:44:22;100817.88;;;21.28;60.09
65659;BME280;60181;53.258;6.932;2022-09-09T04:48:50;100821.55;;;21.28;60.18
65659;BME280;60181;53.258;6.932;2022-09-09T04:53:18;100825.55;;;21.28;60.16
65659;BME280;60181;53.258;6.932;2022-09-09T04:57:46;100827.73;;;21.28;60.65
65659;BME280;60181;53.258;6.932;2022-09-09T05:02:14;100829.57;;;21.27;60.65
65659;BME280;60181;53.258;6.932;2022-09-09T05:06:42;100830.16;;;21.27;62.15
65659;BME280;60181;53.258;6.932;2022-09-09T05:11:29;100831.08;;;21.26;61.37
65659;BME280;60181;53.258;6.932;2022-09-09T05:15:38;100831.52;;;21.25;61.31
65659;BME280;60181;53.258;6.932;2022-09-09T05:20:06;100831.30;;;21.24;61.16
65659;BME280;60181;53.258;6.932;2022-09-09T05:24:34;100830.31;;;21.23;61.05
65659;BME280;60181;53.258;6.932;2022-09-09T05:29:02;100829.49;;;21.22;61.09
65659;BME280;60181;53.258;6.932;2022-09-09T05:33:30;100829.25;;;21.21;60.99
65659;BME280;60181;53.258;6.932;2022-09-09T05:38:01;100830.10;;;21.21;60.94
65659;BME280;60181;53.258;6.932;2022-09-09T05:42:29;100830.69;;;21.20;60.96
65659;BME280;60181;53.258;6.932;2022-09-09T05:46:54;100832.01;;;21.19;60.92
65659;BME280;60181;53.258;6.932;2022-09-09T05:51:23;100834.11;;;21.19;60.82
65659;BME280;60181;53.258;6.932;2022-09-09T05:55:50;100837.03;;;21.19;60.86
65659;BME280;60181;53.258;6.932;2022-09-09T06:00:18;100839.12;;;21.19;60.81
65659;BME280;60181;53.258;6.932;2022-09-09T06:04:46;100840.19;;;21.18;60.77
65659;BME280;60181;53.258;6.932;2022-09-09T06:09:14;100841.19;;;21.18;60.73
65659;BME280;60181;53.258;6.932;2022-09-09T06:13:42;100842.94;;;21.18;60.75
65659;BME280;60181;53.258;6.932;2022-09-09T06:18:10;100843.95;;;21.18;60.70
65659;BME280;60181;53.258;6.932;2022-09-09T06:22:39;100846.11;;;21.18;60.67
65659;BME280;60181;53.258;6.932;2022-09-09T06:27:06;100849.52;;;21.18;60.63
65659;BME280;60181;53.258;6.932;2022-09-09T06:31:34;100852.19;;;21.18;60.59
65659;BME280;60181;53.258;6.932;2022-09-09T06:36:03;100853.52;;;21.18;60.56
65659;BME280;60181;53.258;6.932;2022-09-09T06:40:30;100854.96;;;21.19;60.59
65659;BME280;60181;53.258;6.932;2022-09-09T06:44:58;100857.19;;;21.19;60.52
65659;BME280;60181;53.258;6.932;2022-09-09T06:49:26;100859.16;;;21.19;60.46
65659;BME280;60181;53.258;6.932;2022-09-09T06:53:55;100861.27;;;21.20;60.46
65659;BME280;60181;53.258;6.932;2022-09-09T06:58:22;100861.83;;;21.20;60.43
65659;BME280;60181;53.258;6.932;2022-09-09T07:02:50;100861.42;;;21.21;60.33
65659;BME280;60181;53.258;6.932;2022-09-09T07:07:18;100860.88;;;21.22;60.24
65659;BME280;60181;53.258;6.932;2022-09-09T07:11:47;100859.88;;;21.23;60.19
65659;BME280;60181;53.258;6.932;2022-09-09T07:16:17;100860.02;;;21.25;60.09
65659;BME280;60181;53.258;6.932;2022-09-09T07:20:42;100858.89;;;21.28;59.96
65659;BME280;60181;53.258;6.932;2022-09-09T07:25:10;100858.85;;;21.31;59.90
65659;BME280;60181;53.258;6.932;2022-09-09T07:29:38;100858.72;;;21.34;59.83
65659;BME280;60181;53.258;6.932;2022-09-09T07:34:06;100859.06;;;21.37;59.88
65659;BME280;60181;53.258;6.932;2022-09-09T07:38:37;100857.62;;;21.40;59.70
65659;BME280;60181;53.258;6.932;2022-09-09T07:43:02;100857.14;;;21.43;59.68
65659;BME280;60181;53.258;6.932;2022-09-09T07:47:30;100858.20;;;21.46;59.61
65659;BME280;60181;53.258;6.932;2022-09-09T07:51:58;100860.57;;;21.48;59.66
65659;BME280;60181;53.258;6.932;2022-09-09T07:56:26;100862.22;;;21.49;59.74
65659;BME280;60181;53.258;6.932;2022-09-09T08:00:54;100863.44;;;21.50;59.73
65659;BME280;60181;53.258;6.932;2022-09-09T08:05:22;100862.69;;;21.50;59.71
65659;BME280;60181;53.258;6.932;2022-09-09T08:09:50;100862.58;;;21.52;59.69
65659;BME280;60181;53.258;6.932;2022-09-09T08:14:18;100861.83;;;21.53;59.63
65659;BME280;60181;53.258;6.932;2022-09-09T08:18:46;100861.45;;;21.54;59.60
65659;BME280;60181;53.258;6.932;2022-09-09T08:23:14;100864.26;;;21.56;59.47
65659;BME280;60181;53.258;6.932;2022-09-09T08:27:42;100866.25;;;21.60;59.23
65659;BME280;60181;53.258;6.932;2022-09-09T08:32:10;100868.42;;;21.64;59.21
65659;BME280;60181;53.258;6.932;2022-09-09T08:36:39;100871.04;;;21.67;59.25
65659;BME280;60181;53.258;6.932;2022-09-09T08:54:31;100875.47;;;21.85;58.34
65659;BME280;60181;53.258;6.932;2022-09-09T08:58:59;100877.64;;;21.89;58.67
65659;BME280;60181;53.258;6.932;2022-09-09T09:12:22;100885.55;;;21.90;59.39
65659;BME280;60181;53.258;6.932;2022-09-09T09:21:24;100890.16;;;21.86;59.55
65659;BME280;60181;53.258;6.932;2022-09-09T09:25:46;100891.83;;;21.84;59.57
65659;BME280;60181;53.258;6.932;2022-09-09T09:30:17;100891.94;;;21.83;59.53
65659;BME280;60181;53.258;6.932;2022-09-09T09:34:42;100892.36;;;21.82;59.42
65659;BME280;60181;53.258;6.932;2022-09-09T09:39:10;100893.80;;;21.82;59.46
65659;BME280;60181;53.258;6.932;2022-09-09T09:43:40;100895.86;;;21.82;59.50
65659;BME280;60181;53.258;6.932;2022-09-09T09:48:08;100898.81;;;21.81;59.60
65659;BME280;60181;53.258;6.932;2022-09-09T09:52:34;100901.20;;;21.82;59.35
65659;BME280;60181;53.258;6.932;2022-09-09T09:57:11;100903.67;;;21.84;59.17
65659;BME280;60181;53.258;6.932;2022-09-09T10:01:31;100905.49;;;21.85;59.47
65659;BME280;60181;53.258;6.932;2022-09-09T10:05:58;100906.32;;;21.85;59.49
65659;BME280;60181;53.258;6.932;2022-09-09T10:10:28;100906.72;;;21.85;59.43
65659;BME280;60181;53.258;6.932;2022-09-09T10:19:34;100909.16;;;21.91;58.91
65659;BME280;60181;53.258;6.932;2022-09-09T10:28:37;100910.85;;;21.94;59.09
65659;BME280;60181;53.258;6.932;2022-09-09T10:46:20;100913.11;;;21.98;58.87
65659;BME280;60181;53.258;6.932;2022-09-09T10:50:50;100912.74;;;22.00;59.00
65659;BME280;60181;53.258;6.932;2022-09-09T10:55:14;100911.08;;;22.00;59.19
65659;BME280;60181;53.258;6.932;2022-09-09T10:59:36;100911.77;;;21.99;59.29
65659;BME280;60181;53.258;6.932;2022-09-09T11:04:05;100911.86;;;21.99;59.22
65659;BME280;60181;53.258;6.932;2022-09-09T11:08:30;100911.69;;;21.99;59.21
65659;BME280;60181;53.258;6.932;2022-09-09T11:12:59;100911.03;;;21.99;59.31
65659;BME280;60181;53.258;6.932;2022-09-09T11:21:54;100908.31;;;22.00;59.15
65659;BME280;60181;53.258;6.932;2022-09-09T11:26:27;100908.06;;;22.01;59.06
65659;BME280;60181;53.258;6.932;2022-09-09T11:40:07;100907.54;;;22.02;59.91
65659;BME280;60181;53.258;6.932;2022-09-09T11:44:17;100907.67;;;21.99;59.90
65659;BME280;60181;53.258;6.932;2022-09-09T11:48:42;100907.21;;;21.96;59.73
65659;BME280;60181;53.258;6.932;2022-09-09T11:53:17;100907.34;;;21.94;60.13
65659;BME280;60181;53.258;6.932;2022-09-09T11:57:37;100907.21;;;21.92;59.92
65659;BME280;60181;53.258;6.932;2022-09-09T12:02:16;100907.54;;;21.92;59.90
65659;BME280;60181;53.258;6.932;2022-09-09T12:06:41;100906.09;;;21.93;59.96
65659;BME280;60181;53.258;6.932;2022-09-09T12:11:02;100904.66;;;21.95;60.25
65659;BME280;60181;53.258;6.932;2022-09-09T12:15:30;100901.50;;;21.95;59.34
65659;BME280;60181;53.258;6.932;2022-09-09T12:20:02;100898.00;;;21.94;59.70
65659;BME280;60181;53.258;6.932;2022-09-09T12:33:21;100890.92;;;21.93;59.84
65659;BME280;60181;53.258;6.932;2022-09-09T12:37:50;100889.54;;;21.91;59.81
65659;BME280;60181;53.258;6.932;2022-09-09T12:42:18;100888.61;;;21.87;59.55
65659;BME280;60181;53.258;6.932;2022-09-09T12:46:45;100888.67;;;21.83;59.36
65659;BME280;60181;53.258;6.932;2022-09-09T12:55:49;100886.40;;;21.75;59.45
65659;BME280;60181;53.258;6.932;2022-09-09T13:00:21;100882.89;;;21.71;59.83
65659;BME280;60181;53.258;6.932;2022-09-09T13:04:37;100879.19;;;21.67;59.97
65659;BME280;60181;53.258;6.932;2022-09-09T13:09:07;100876.83;;;21.64;60.69
65659;BME280;60181;53.258;6.932;2022-09-09T13:13:37;100874.95;;;21.62;60.89
65659;BME280;60181;53.258;6.932;2022-09-09T13:18:03;100872.69;;;21.62;60.08
65659;BME280;60181;53.258;6.932;2022-09-09T13:22:38;100870.53;;;21.62;59.72
65659;BME280;60181;53.258;6.932;2022-09-09T13:31:33;100863.14;;;21.61;59.18
65659;BME280;60181;53.258;6.932;2022-09-09T13:35:54;100858.61;;;21.63;58.28
65659;BME280;60181;53.258;6.932;2022-09-09T13:40:22;100854.13;;;21.66;58.46
65659;BME280;60181;53.258;6.932;2022-09-09T13:44:49;100850.42;;;21.69;58.23
65659;BME280;60181;53.258;6.932;2022-09-09T13:49:21;100848.71;;;21.71;58.59
65659;BME280;60181;53.258;6.932;2022-09-09T13:53:45;100846.70;;;21.72;58.09
65659;BME280;60181;53.258;6.932;2022-09-09T13:58:14;100846.15;;;21.71;57.75
65659;BME280;60181;53.258;6.932;2022-09-09T14:02:41;100846.22;;;21.70;57.86
65659;BME280;60181;53.258;6.932;2022-09-09T14:07:13;100847.36;;;21.68;57.94
65659;BME280;60181;53.258;6.932;2022-09-09T14:11:38;100849.38;;;21.67;57.95
65659;BME280;60181;53.258;6.932;2022-09-09T14:16:05;100851.15;;;21.65;57.84
65659;BME280;60181;53.258;6.932;2022-09-09T14:20:33;100854.24;;;21.65;57.77
65659;BME280;60181;53.258;6.932;2022-09-09T14:25:02;100856.88;;;21.65;57.68
65659;BME280;60181;53.258;6.932;2022-09-09T14:29:29;100860.30;;;21.66;57.76
65659;BME280;60181;53.258;6.932;2022-09-09T14:33:57;100862.28;;;21.67;57.96
65659;BME280;60181;53.258;6.932;2022-09-09T14:38:28;100863.12;;;21.67;58.09
65659;BME280;60181;53.258;6.932;2022-09-09T14:42:53;100863.32;;;21.65;58.26
65659;BME280;60181;53.258;6.932;2022-09-09T14:47:21;100862.78;;;21.63;58.51
65659;BME280;60181;53.258;6.932;2022-09-09T14:51:49;100864.04;;;21.61;59.39
65659;BME280;60181;53.258;6.932;2022-09-09T14:56:18;100864.70;;;21.61;58.91
65659;BME280;60181;53.258;6.932;2022-09-09T15:00:45;100863.96;;;21.62;58.59
65659;BME280;60181;53.258;6.932;2022-09-09T15:05:13;100864.15;;;21.64;58.60
65659;BME280;60181;53.258;6.932;2022-09-09T15:09:41;100864.32;;;21.65;58.60
65659;BME280;60181;53.258;6.932;2022-09-09T15:14:09;100864.64;;;21.66;58.71
65659;BME280;60181;53.258;6.932;2022-09-09T15:18:37;100865.88;;;21.67;58.84
65659;BME280;60181;53.258;6.932;2022-09-09T15:23:05;100867.38;;;21.67;58.94
65659;BME280;60181;53.258;6.932;2022-09-09T15:27:33;100868.05;;;21.67;58.98
65659;BME280;60181;53.258;6.932;2022-09-09T15:32:01;100869.97;;;21.66;59.27
65659;BME280;60181;53.258;6.932;2022-09-09T15:36:39;100870.87;;;21.66;59.17
65659;BME280;60181;53.258;6.932;2022-09-09T15:40:57;100871.45;;;21.67;59.04
65659;BME280;60181;53.258;6.932;2022-09-09T15:45:25;100871.60;;;21.68;59.19
65659;BME280;60181;53.258;6.932;2022-09-09T15:49:53;100871.75;;;21.69;59.33
65659;BME280;60181;53.258;6.932;2022-09-09T15:54:22;100871.82;;;21.71;59.68
65659;BME280;60181;53.258;6.932;2022-09-09T15:58:50;100869.19;;;21.73;59.98
65659;BME280;60181;53.258;6.932;2022-09-09T16:03:18;100867.30;;;21.76;60.48
65659;BME280;60181;53.258;6.932;2022-09-09T16:07:46;100865.18;;;21.78;60.51
65659;BME280;60181;53.258;6.932;2022-09-09T16:12:14;100864.74;;;21.80;60.50
65659;BME280;60181;53.258;6.932;2022-09-09T16:16:42;100864.69;;;21.82;60.29
65659;BME280;60181;53.258;6.932;2022-09-09T16:21:12;100864.50;;;21.84;60.53
65659;BME280;60181;53.258;6.932;2022-09-09T16:25:38;100864.39;;;21.85;60.46
65659;BME280;60181;53.258;6.932;2022-09-09T16:30:06;100865.17;;;21.87;60.48
65659;BME280;60181;53.258;6.932;2022-09-09T16:34:34;100865.88;;;21.90;60.46
65659;BME280;60181;53.258;6.932;2022-09-09T16:39:03;100865.61;;;21.92;60.59
65659;BME280;60181;53.258;6.932;2022-09-09T16:43:30;100866.33;;;21.93;60.63
65659;BME280;60181;53.258;6.932;2022-09-09T16:47:58;100868.58;;;21.94;60.73
65659;BME280;60181;53.258;6.932;2022-09-09T16:52:26;100872.01;;;21.93;60.92
65659;BME280;60181;53.258;6.932;2022-09-09T16:56:54;100875.45;;;21.92;61.06
65659;BME280;60181;53.258;6.932;2022-09-09T17:01:22;100878.56;;;21.90;61.17
65659;BME280;60181;53.258;6.932;2022-09-09T17:05:50;100882.59;;;21.88;61.29
65659;BME280;60181;53.258;6.932;2022-09-09T17:10:18;100885.72;;;21.86;61.42
65659;BME280;60181;53.258;6.932;2022-09-09T17:14:46;100888.65;;;21.84;61.70
65659;BME280;60181;53.258;6.932;2022-09-09T17:19:14;100892.30;;;21.82;61.78
65659;BME280;60181;53.258;6.932;2022-09-09T17:23:42;100897.30;;;21.81;61.97
65659;BME280;60181;53.258;6.932;2022-09-09T17:28:10;100901.75;;;21.79;62.25
65659;BME280;60181;53.258;6.932;2022-09-09T17:32:38;100904.55;;;21.78;62.35
65659;BME280;60181;53.258;6.932;2022-09-09T17:37:06;100907.96;;;21.76;62.30
65659;BME280;60181;53.258;6.932;2022-09-09T17:41:37;100912.24;;;21.75;62.47
65659;BME280;60181;53.258;6.932;2022-09-09T17:46:05;100916.76;;;21.74;62.62
65659;BME280;60181;53.258;6.932;2022-09-09T17:50:30;100921.27;;;21.73;62.57
65659;BME280;60181;53.258;6.932;2022-09-09T17:54:58;100926.23;;;21.72;62.59
65659;BME280;60181;53.258;6.932;2022-09-09T17:59:26;100930.41;;;21.71;62.81
65659;BME280;60181;53.258;6.932;2022-09-09T18:03:54;100934.66;;;21.70;62.91
65659;BME280;60181;53.258;6.932;2022-09-09T18:08:22;100937.85;;;21.70;63.07
65659;BME280;60181;53.258;6.932;2022-09-09T18:12:50;100939.61;;;21.69;63.09
65659;BME280;60181;53.258;6.932;2022-09-09T18:17:18;100942.36;;;21.69;63.15
65659;BME280;60181;53.258;6.932;2022-09-09T18:21:46;100944.36;;;21.68;62.98
65659;BME280;60181;53.258;6.932;2022-09-09T18:26:14;100945.45;;;21.68;63.07
65659;BME280;60181;53.258;6.932;2022-09-09T18:30:41;100945.61;;;21.67;63.03
65659;BME280;60181;53.258;6.932;2022-09-09T18:35:09;100944.97;;;21.67;62.79
65659;BME280;60181;53.258;6.932;2022-09-09T18:39:37;100944.89;;;21.66;62.44
65659;BME280;60181;53.258;6.932;2022-09-09T18:44:06;100943.09;;;21.65;62.35
65659;BME280;60181;53.258;6.932;2022-09-09T18:48:33;100943.70;;;21.63;62.26
65659;BME280;60181;53.258;6.932;2022-09-09T18:53:01;100945.31;;;21.62;62.21
65659;BME280;60181;53.258;6.932;2022-09-09T18:57:29;100948.05;;;21.61;62.17
65659;BME280;60181;53.258;6.932;2022-09-09T19:01:57;100952.09;;;21.60;62.15
65659;BME280;60181;53.258;6.932;2022-09-09T19:06:27;100955.41;;;21.59;62.15
65659;BME280;60181;53.258;6.932;2022-09-09T19:10:53;100957.92;;;21.58;62.09
65659;BME280;60181;53.258;6.932;2022-09-09T19:15:23;100959.18;;;21.57;62.04
65659;BME280;60181;53.258;6.932;2022-09-09T19:19:49;100960.93;;;21.56;62.06
65659;BME280;60181;53.258;6.932;2022-09-09T19:24:18;100963.22;;;21.55;62.04
65659;BME280;60181;53.258;6.932;2022-09-09T19:28:46;100966.53;;;21.55;61.96
65659;BME280;60181;53.258;6.932;2022-09-09T19:33:13;100969.62;;;21.54;61.93
65659;BME280;60181;53.258;6.932;2022-09-09T19:37:41;100972.57;;;21.53;61.94
65659;BME280;60181;53.258;6.932;2022-09-09T19:42:09;100976.48;;;21.52;61.91
65659;BME280;60181;53.258;6.932;2022-09-09T19:46:38;100981.09;;;21.52;61.93
65659;BME280;60181;53.258;6.932;2022-09-09T19:51:09;100985.02;;;21.52;61.89
65659;BME280;60181;53.258;6.932;2022-09-09T19:55:37;100988.40;;;21.52;61.89
65659;BME280;60181;53.258;6.932;2022-09-09T20:00:02;100990.74;;;21.52;61.90
65659;BME280;60181;53.258;6.932;2022-09-09T20:04:29;100990.84;;;21.51;61.91
65659;BME280;60181;53.258;6.932;2022-09-09T20:08:57;100991.43;;;21.51;61.97
65659;BME280;60181;53.258;6.932;2022-09-09T20:13:27;100991.03;;;21.51;62.01
65659;BME280;60181;53.258;6.932;2022-09-09T20:17:53;100991.60;;;21.51;62.01
65659;BME280;60181;53.258;6.932;2022-09-09T20:22:21;100993.02;;;21.50;62.05
65659;BME280;60181;53.258;6.932;2022-09-09T20:26:49;100994.11;;;21.50;62.07
65659;BME280;60181;53.258;6.932;2022-09-09T20:31:21;100994.04;;;21.50;62.05
65659;BME280;60181;53.258;6.932;2022-09-09T20:35:45;100994.04;;;21.50;62.07
65659;BME280;60181;53.258;6.932;2022-09-09T20:40:13;100994.10;;;21.50;62.09
65659;BME280;60181;53.258;6.932;2022-09-09T20:44:41;100993.86;;;21.49;62.09
65659;BME280;60181;53.258;6.932;2022-09-09T20:49:10;100992.95;;;21.49;62.14
65659;BME280;60181;53.258;6.932;2022-09-09T20:53:37;100991.88;;;21.49;62.11
65659;BME280;60181;53.258;6.932;2022-09-09T20:58:05;100991.38;;;21.49;62.08
65659;BME280;60181;53.258;6.932;2022-09-09T21:02:33;100990.04;;;21.50;62.44
65659;BME280;60181;53.258;6.932;2022-09-09T21:07:01;100987.59;;;21.51;62.63
65659;BME280;60181;53.258;6.932;2022-09-09T21:11:29;100985.92;;;21.52;62.31
65659;BME280;60181;53.258;6.932;2022-09-09T21:15:57;100986.08;;;21.52;62.55
65659;BME280;60181;53.258;6.932;2022-09-09T21:20:25;100987.84;;;21.52;62.72
65659;BME280;60181;53.258;6.932;2022-09-09T21:24:53;100989.59;;;21.51;63.37
65659;BME280;60181;53.258;6.932;2022-09-09T21:29:21;100991.64;;;21.48;63.41
65659;BME280;60181;53.258;6.932;2022-09-09T21:33:49;100995.50;;;21.47;63.02
65659;BME280;60181;53.258;6.932;2022-09-09T21:38:19;100999.03;;;21.44;62.97
65659;BME280;60181;53.258;6.932;2022-09-09T21:42:45;101001.64;;;21.42;63.01
65659;BME280;60181;53.258;6.932;2022-09-09T21:47:13;101004.61;;;21.39;62.91
65659;BME280;60181;53.258;6.932;2022-09-09T21:51:41;101007.81;;;21.36;62.91
65659;BME280;60181;53.258;6.932;2022-09-09T21:56:10;101011.84;;;21.33;62.93
65659;BME280;60181;53.258;6.932;2022-09-09T22:00:41;101015.79;;;21.30;62.91
65659;BME280;60181;53.258;6.932;2022-09-09T22:05:05;101018.97;;;21.28;62.89
65659;BME280;60181;53.258;6.932;2022-09-09T22:09:33;101021.59;;;21.26;62.88
65659;BME280;60181;53.258;6.932;2022-09-09T22:14:01;101023.44;;;21.25;62.87
65659;BME280;60181;53.258;6.932;2022-09-09T22:18:29;101025.54;;;21.24;62.86
65659;BME280;60181;53.258;6.932;2022-09-09T22:22:58;101026.81;;;21.22;62.82
65659;BME280;60181;53.258;6.932;2022-09-09T22:27:25;101027.58;;;21.21;62.73
65659;BME280;60181;53.258;6.932;2022-09-09T22:31:53;101029.74;;;21.19;62.71
65659;BME280;60181;53.258;6.932;2022-09-09T22:36:21;101030.53;;;21.18;62.64
65659;BME280;60181;53.258;6.932;2022-09-09T22:40:49;101032.81;;;21.16;62.58
65659;BME280;60181;53.258;6.932;2022-09-09T22:45:17;101035.21;;;21.15;62.51
65659;BME280;60181;53.258;6.932;2022-09-09T22:49:45;101037.81;;;21.14;62.51
65659;BME280;60181;53.258;6.932;2022-09-09T22:54:13;101039.34;;;21.12;62.48
65659;BME280;60181;53.258;6.932;2022-09-09T22:58:41;101040.34;;;21.11;62.44
65659;BME280;60181;53.258;6.932;2022-09-09T23:03:09;101041.94;;;21.10;62.42
65659;BME280;60181;53.258;6.932;2022-09-09T23:07:37;101043.36;;;21.10;62.38
65659;BME280;60181;53.258;6.932;2022-09-09T23:12:05;101044.11;;;21.11;62.11
65659;BME280;60181;53.258;6.932;2022-09-09T23:16:34;101046.42;;;21.11;62.21
65659;BME280;60181;53.258;6.932;2022-09-09T23:21:01;101048.43;;;21.12;62.19
65659;BME280;60181;53.258;6.932;2022-09-09T23:25:29;101050.42;;;21.13;62.26
65659;BME280;60181;53.258;6.932;2022-09-09T23:29:57;101051.33;;;21.13;62.26
65659;BME280;60181;53.258;6.932;2022-09-09T23:34:25;101052.89;;;21.13;62.26
65659;BME280;60181;53.258;6.932;2022-09-09T23:38:53;101054.32;;;21.14;62.16
65659;BME280;60181;53.258;6.932;2022-09-09T23:43:22;101053.81;;;21.14;62.18
65659;BME280;60181;53.258;6.932;2022-09-09T23:47:49;101052.22;;;21.14;62.24
65659;BME280;60181;53.258;6.932;2022-09-09T23:52:17;101049.49;;;21.14;62.21
65659;BME280;60181;53.258;6.932;2022-09-09T23:56:45;101048.15;;;21.14;62.04
